sensor_id;sensor_type;location;lat;lon;timestamp;pressure;altitude;pressure_sealevel;temperature;humidity
7433;BME280;32233;49.500;7.764;2023-07-31T00:01:13;98399.53;;;15.69;85.31
7433;BME280;32233;49.500;7.764;2023-07-31T00:03:40;98408.44;;;15.74;86.89
7433;BME280;32233;49.500;7.764;2023-07-31T00:06:06;98399.84;;;15.84;83.23
7433;BME280;32233;49.500;7.764;2023-07-31T00:08:33;98394.16;;;15.92;84.80
7433;BME280;32233;49.500;7.764;2023-07-31T00:11:00;98396.31;;;15.95;82.22
7433;BME280;32233;49.500;7.764;2023-07-31T00:13:26;98394.16;;;15.92;82.71
7433;BME280;32233;49.500;7.764;2023-07-31T00:15:53;98394.75;;;15.82;83.25
7433;BME280;32233;49.500;7.764;2023-07-31T00:18:19;98390.16;;;15.66;86.48
7433;BME280;32233;49.500;7.764;2023-07-31T00:20:46;98384.34;;;15.57;86.28
7433;BME280;32233;49.500;7.764;2023-07-31T00:23:13;98381.78;;;15.51;88.69
7433;BME280;32233;49.500;7.764;2023-07-31T00:25:39;98387.47;;;15.43;89.67
7433;BME280;32233;49.500;7.764;2023-07-31T00:28:06;98381.00;;;15.50;86.89
7433;BME280;32233;49.500;7.764;2023-07-31T00:30:32;98382.47;;;15.58;86.16
7433;BME280;32233;49.500;7.764;2023-07-31T00:33:00;98387.72;;;15.53;85.14
7433;BME280;32233;49.500;7.764;2023-07-31T00:35:29;98388.06;;;15.56;86.32
7433;BME280;32233;49.500;7.764;2023-07-31T00:40:23;98382.97;;;15.67;86.10
7433;BME280;32233;49.500;7.764;2023-07-31T00:42:50;98372.63;;;15.70;85.42
7433;BME280;32233;49.500;7.764;2023-07-31T00:45:16;98374.84;;;15.73;85.80
7433;BME280;32233;49.500;7.764;2023-07-31T00:47:43;98380.63;;;15.70;85.28
7433;BME280;32233;49.500;7.764;2023-07-31T00:50:10;98385.97;;;15.70;86.46
7433;BME280;32233;49.500;7.764;2023-07-31T00:52:37;98378.44;;;15.67;83.43
7433;BME280;32233;49.500;7.764;2023-07-31T00:55:04;98386.53;;;15.60;85.34
7433;BME280;32233;49.500;7.764;2023-07-31T00:57:32;98390.56;;;15.63;85.57
7433;BME280;32233;49.500;7.764;2023-07-31T01:00:00;98387.72;;;15.53;88.59
7433;BME280;32233;49.500;7.764;2023-07-31T01:02:26;98383.56;;;15.45;88.01
7433;BME280;32233;49.500;7.764;2023-07-31T01:04:54;98372.81;;;15.40;90.87
7433;BME280;32233;49.500;7.764;2023-07-31T01:07:27;98376.38;;;15.46;87.27
7433;BME280;32233;49.500;7.764;2023-07-31T01:10:11;98378.78;;;15.59;85.87
7433;BME280;32233;49.500;7.764;2023-07-31T01:12:45;98380.28;;;15.67;85.55
7433;BME280;32233;49.500;7.764;2023-07-31T01:15:12;98374.97;;;15.67;85.86
7433;BME280;32233;49.500;7.764;2023-07-31T01:17:42;98361.38;;;15.80;83.33
7433;BME280;32233;49.500;7.764;2023-07-31T01:20:14;98354.19;;;15.80;82.88
7433;BME280;32233;49.500;7.764;2023-07-31T01:23:13;98345.84;;;15.89;82.69
7433;BME280;32233;49.500;7.764;2023-07-31T01:26:05;98348.91;;;15.69;83.55
7433;BME280;32233;49.500;7.764;2023-07-31T01:31:41;98353.66;;;15.55;85.01
7433;BME280;32233;49.500;7.764;2023-07-31T01:34:09;98347.06;;;15.46;85.97
7433;BME280;32233;49.500;7.764;2023-07-31T01:36:37;98346.38;;;15.39;89.25
7433;BME280;32233;49.500;7.764;2023-07-31T01:39:04;98349.09;;;15.27;89.99
7433;BME280;32233;49.500;7.764;2023-07-31T01:41:31;98347.94;;;15.11;93.14
7433;BME280;32233;49.500;7.764;2023-07-31T01:43:57;98350.13;;;15.14;89.67
7433;BME280;32233;49.500;7.764;2023-07-31T01:46:24;98347.44;;;15.26;88.75
7433;BME280;32233;49.500;7.764;2023-07-31T01:48:51;98349.56;;;15.12;91.48
7433;BME280;32233;49.500;7.764;2023-07-31T01:51:18;98339.25;;;15.04;92.74
7433;BME280;32233;49.500;7.764;2023-07-31T01:53:44;98339.16;;;14.99;93.95
7433;BME280;32233;49.500;7.764;2023-07-31T01:56:11;98335.09;;;15.08;90.15
7433;BME280;32233;49.500;7.764;2023-07-31T01:58:38;98330.56;;;15.08;90.61
7433;BME280;32233;49.500;7.764;2023-07-31T02:01:04;98329.06;;;15.01;92.51
7433;BME280;32233;49.500;7.764;2023-07-31T02:03:33;98332.53;;;15.13;90.40
7433;BME280;32233;49.500;7.764;2023-07-31T02:06:00;98328.38;;;15.17;89.22
7433;BME280;32233;49.500;7.764;2023-07-31T02:08:26;98324.34;;;15.15;90.43
7433;BME280;32233;49.500;7.764;2023-07-31T02:10:53;98331.72;;;15.01;91.69
7433;BME280;32233;49.500;7.764;2023-07-31T02:13:20;98322.59;;;15.08;90.48
7433;BME280;32233;49.500;7.764;2023-07-31T02:15:47;98318.16;;;15.14;89.22
7433;BME280;32233;49.500;7.764;2023-07-31T02:18:14;98318.31;;;15.07;89.39
7433;BME280;32233;49.500;7.764;2023-07-31T02:20:40;98314.34;;;15.10;88.60
7433;BME280;32233;49.500;7.764;2023-07-31T02:23:07;98303.84;;;14.92;90.57
7433;BME280;32233;49.500;7.764;2023-07-31T02:25:36;98299.34;;;14.80;93.50
7433;BME280;32233;49.500;7.764;2023-07-31T02:28:03;98302.13;;;14.74;92.74
7433;BME280;32233;49.500;7.764;2023-07-31T02:30:30;98304.22;;;14.72;92.90
7433;BME280;32233;49.500;7.764;2023-07-31T02:32:56;98305.16;;;14.66;96.13
7433;BME280;32233;49.500;7.764;2023-07-31T02:35:23;98304.22;;;14.72;93.96
7433;BME280;32233;49.500;7.764;2023-07-31T02:37:49;98309.63;;;14.65;94.44
7433;BME280;32233;49.500;7.764;2023-07-31T02:40:17;98308.59;;;14.66;93.70
7433;BME280;32233;49.500;7.764;2023-07-31T02:42:44;98312.63;;;14.69;94.71
7433;BME280;32233;49.500;7.764;2023-07-31T02:45:11;98313.78;;;14.61;94.75
7433;BME280;32233;49.500;7.764;2023-07-31T02:47:37;98317.50;;;14.60;95.35
7433;BME280;32233;49.500;7.764;2023-07-31T02:50:04;98318.78;;;14.57;97.15
7433;BME280;32233;49.500;7.764;2023-07-31T02:52:31;98315.88;;;14.59;95.37
7433;BME280;32233;49.500;7.764;2023-07-31T02:54:58;98319.81;;;14.56;96.28
7433;BME280;32233;49.500;7.764;2023-07-31T02:57:25;98315.97;;;14.52;95.97
7433;BME280;32233;49.500;7.764;2023-07-31T02:59:51;98316.69;;;14.59;96.83
7433;BME280;32233;49.500;7.764;2023-07-31T03:02:18;98317.50;;;14.60;99.55
7433;BME280;32233;49.500;7.764;2023-07-31T03:04:45;98313.13;;;14.66;97.90
7433;BME280;32233;49.500;7.764;2023-07-31T03:07:13;98312.19;;;14.60;97.64
7433;BME280;32233;49.500;7.764;2023-07-31T03:09:40;98308.81;;;14.53;98.06
7433;BME280;32233;49.500;7.764;2023-07-31T03:12:07;98310.66;;;14.52;98.84
7433;BME280;32233;49.500;7.764;2023-07-31T03:14:34;98310.97;;;14.44;97.98
7433;BME280;32233;49.500;7.764;2023-07-31T03:17:00;98308.66;;;14.36;100.00
7433;BME280;32233;49.500;7.764;2023-07-31T03:19:30;98307.81;;;14.24;100.00
7433;BME280;32233;49.500;7.764;2023-07-31T03:21:57;98309.09;;;14.21;100.00
7433;BME280;32233;49.500;7.764;2023-07-31T03:24:23;98311.59;;;14.16;100.00
7433;BME280;32233;49.500;7.764;2023-07-31T03:26:50;98326.06;;;14.20;100.00
7433;BME280;32233;49.500;7.764;2023-07-31T03:29:17;98315.31;;;14.15;100.00
7433;BME280;32233;49.500;7.764;2023-07-31T03:31:44;98322.38;;;14.21;100.00
7433;BME280;32233;49.500;7.764;2023-07-31T03:34:10;98326.06;;;14.20;100.00
7433;BME280;32233;49.500;7.764;2023-07-31T03:36:37;98319.81;;;14.15;100.00
7433;BME280;32233;49.500;7.764;2023-07-31T03:39:04;98324.31;;;14.14;100.00
7433;BME280;32233;49.500;7.764;2023-07-31T03:41:31;98319.00;;;14.14;100.00
7433;BME280;32233;49.500;7.764;2023-07-31T03:43:57;98310.75;;;14.04;100.00
7433;BME280;32233;49.500;7.764;2023-07-31T03:46:24;98309.91;;;13.92;100.00
7433;BME280;32233;49.500;7.764;2023-07-31T03:48:51;98314.22;;;13.93;100.00
7433;BME280;32233;49.500;7.764;2023-07-31T03:51:17;98308.53;;;13.89;100.00
7433;BME280;32233;49.500;7.764;2023-07-31T03:53:44;98303.00;;;13.91;100.00
7433;BME280;32233;49.500;7.764;2023-07-31T03:56:11;98318.13;;;13.90;100.00
7433;BME280;32233;49.500;7.764;2023-07-31T03:58:38;98318.19;;;13.83;100.00
7433;BME280;32233;49.500;7.764;2023-07-31T04:01:04;98310.47;;;13.82;100.00
7433;BME280;32233;49.500;7.764;2023-07-31T04:03:31;98323.38;;;13.78;100.00
7433;BME280;32233;49.500;7.764;2023-07-31T04:05:57;98320.41;;;13.86;100.00
7433;BME280;32233;49.500;7.764;2023-07-31T04:08:24;98314.03;;;13.76;100.00
7433;BME280;32233;49.500;7.764;2023-07-31T04:10:50;98309.16;;;13.73;100.00
7433;BME280;32233;49.500;7.764;2023-07-31T04:13:17;98310.16;;;13.90;100.00
7433;BME280;32233;49.500;7.764;2023-07-31T04:15:50;98309.22;;;13.84;100.00
7433;BME280;32233;49.500;7.764;2023-07-31T04:18:17;98304.84;;;13.90;100.00
7433;BME280;32233;49.500;7.764;2023-07-31T04:20:44;98300.28;;;13.79;100.00
7433;BME280;32233;49.500;7.764;2023-07-31T04:23:11;98299.59;;;13.72;100.00
7433;BME280;32233;49.500;7.764;2023-07-31T04:25:37;98290.88;;;13.65;100.00
7433;BME280;32233;49.500;7.764;2023-07-31T04:28:05;98289.75;;;13.72;100.00
7433;BME280;32233;49.500;7.764;2023-07-31T04:30:31;98295.22;;;13.59;100.00
7433;BME280;32233;49.500;7.764;2023-07-31T04:32:58;98298.94;;;13.58;100.00
7433;BME280;32233;49.500;7.764;2023-07-31T04:35:25;98298.03;;;13.64;100.00
7433;BME280;32233;49.500;7.764;2023-07-31T04:37:52;98283.28;;;13.68;100.00
7433;BME280;32233;49.500;7.764;2023-07-31T04:40:19;98294.28;;;13.83;100.00
7433;BME280;32233;49.500;7.764;2023-07-31T04:42:45;98289.09;;;13.77;100.00
7433;BME280;32233;49.500;7.764;2023-07-31T04:45:12;98288.81;;;13.67;100.00
7433;BME280;32233;49.500;7.764;2023-07-31T04:47:39;98282.13;;;13.64;100.00
7433;BME280;32233;49.500;7.764;2023-07-31T04:50:06;98287.81;;;13.49;100.00
7433;BME280;32233;49.500;7.764;2023-07-31T04:52:33;98282.19;;;13.57;100.00
7433;BME280;32233;49.500;7.764;2023-07-31T04:54:59;98290.09;;;13.64;100.00
7433;BME280;32233;49.500;7.764;2023-07-31T04:57:26;98287.47;;;13.76;100.00
7433;BME280;32233;49.500;7.764;2023-07-31T04:59:52;98291.16;;;13.75;100.00
7433;BME280;32233;49.500;7.764;2023-07-31T05:02:19;98278.34;;;13.83;100.00
7433;BME280;32233;49.500;7.764;2023-07-31T05:04:45;98287.50;;;13.87;100.00
7433;BME280;32233;49.500;7.764;2023-07-31T05:07:12;98280.19;;;14.13;100.00
7433;BME280;32233;49.500;7.764;2023-07-31T05:09:38;98290.50;;;14.33;100.00
7433;BME280;32233;49.500;7.764;2023-07-31T05:12:06;98295.50;;;14.53;100.00
7433;BME280;32233;49.500;7.764;2023-07-31T05:14:32;98285.59;;;14.72;100.00
7433;BME280;32233;49.500;7.764;2023-07-31T05:16:59;98272.38;;;14.89;100.00
7433;BME280;32233;49.500;7.764;2023-07-31T05:19:25;98277.69;;;15.12;100.00
7433;BME280;32233;49.500;7.764;2023-07-31T05:21:52;98277.78;;;15.17;100.00
7433;BME280;32233;49.500;7.764;2023-07-31T05:24:18;98272.53;;;15.22;100.00
7433;BME280;32233;49.500;7.764;2023-07-31T05:26:45;98267.38;;;15.16;98.74
7433;BME280;32233;49.500;7.764;2023-07-31T05:29:12;98278.94;;;15.21;99.14
7433;BME280;32233;49.500;7.764;2023-07-31T05:31:38;98269.66;;;15.24;100.00
7433;BME280;32233;49.500;7.764;2023-07-31T05:34:05;98275.00;;;15.24;99.53
7433;BME280;32233;49.500;7.764;2023-07-31T05:36:32;98275.34;;;15.27;100.00
7433;BME280;32233;49.500;7.764;2023-07-31T05:38:58;98270.38;;;15.19;98.13
7433;BME280;32233;49.500;7.764;2023-07-31T05:41:25;98260.28;;;15.21;98.60
7433;BME280;32233;49.500;7.764;2023-07-31T05:43:51;98265.16;;;15.24;96.32
7433;BME280;32233;49.500;7.764;2023-07-31T05:46:18;98256.09;;;15.25;97.27
7433;BME280;32233;49.500;7.764;2023-07-31T05:48:44;98254.25;;;15.26;98.17
7433;BME280;32233;49.500;7.764;2023-07-31T05:51:11;98255.78;;;15.10;99.32
7433;BME280;32233;49.500;7.764;2023-07-31T05:53:38;98254.28;;;15.14;100.00
7433;BME280;32233;49.500;7.764;2023-07-31T05:56:07;98246.63;;;15.18;98.53
7433;BME280;32233;49.500;7.764;2023-07-31T05:58:34;98240.75;;;15.16;100.00
7433;BME280;32233;49.500;7.764;2023-07-31T06:01:00;98254.19;;;15.09;100.00
7433;BME280;32233;49.500;7.764;2023-07-31T06:03:27;98250.09;;;15.18;100.00
7433;BME280;32233;49.500;7.764;2023-07-31T06:05:54;98257.41;;;15.23;97.82
7433;BME280;32233;49.500;7.764;2023-07-31T06:08:21;98247.69;;;15.17;99.61
7433;BME280;32233;49.500;7.764;2023-07-31T06:10:48;98249.94;;;15.36;97.92
7433;BME280;32233;49.500;7.764;2023-07-31T06:13:15;98246.06;;;15.56;96.95
7433;BME280;32233;49.500;7.764;2023-07-31T06:15:41;98244.75;;;15.70;98.87
7433;BME280;32233;49.500;7.764;2023-07-31T06:18:08;98248.56;;;15.91;96.98
7433;BME280;32233;49.500;7.764;2023-07-31T06:20:35;98252.44;;;15.83;96.73
7433;BME280;32233;49.500;7.764;2023-07-31T06:23:02;98251.06;;;15.81;99.15
7433;BME280;32233;49.500;7.764;2023-07-31T06:25:30;98250.94;;;16.04;94.44
7433;BME280;32233;49.500;7.764;2023-07-31T06:27:57;98248.44;;;16.15;94.99
7433;BME280;32233;49.500;7.764;2023-07-31T06:30:23;98250.38;;;16.36;94.55
7433;BME280;32233;49.500;7.764;2023-07-31T06:32:50;98249.72;;;17.01;89.68
7433;BME280;32233;49.500;7.764;2023-07-31T06:35:17;98249.00;;;17.28;88.52
7433;BME280;32233;49.500;7.764;2023-07-31T06:37:43;98242.63;;;18.85;80.40
7433;BME280;32233;49.500;7.764;2023-07-31T06:40:11;98235.63;;;21.15;68.28
7433;BME280;32233;49.500;7.764;2023-07-31T06:42:37;98233.69;;;22.19;62.45
7433;BME280;32233;49.500;7.764;2023-07-31T06:45:04;98226.41;;;22.54;60.31
7433;BME280;32233;49.500;7.764;2023-07-31T06:47:31;98220.06;;;22.06;61.54
7433;BME280;32233;49.500;7.764;2023-07-31T06:49:58;98222.63;;;22.79;59.12
7433;BME280;32233;49.500;7.764;2023-07-31T06:52:25;98217.25;;;23.46;57.06
7433;BME280;32233;49.500;7.764;2023-07-31T06:55:35;98223.25;;;22.71;58.66
7433;BME280;32233;49.500;7.764;2023-07-31T06:57:55;98222.69;;;22.16;60.04
7433;BME280;32233;49.500;7.764;2023-07-31T07:00:22;98219.19;;;22.44;60.48
7433;BME280;32233;49.500;7.764;2023-07-31T07:02:49;98220.28;;;22.72;60.08
7433;BME280;32233;49.500;7.764;2023-07-31T07:05:17;98213.72;;;23.69;56.51
7433;BME280;32233;49.500;7.764;2023-07-31T07:07:44;98220.00;;;23.22;56.52
7433;BME280;32233;49.500;7.764;2023-07-31T07:10:11;98219.81;;;22.36;59.84
7433;BME280;32233;49.500;7.764;2023-07-31T07:12:37;98219.44;;;22.19;61.82
7433;BME280;32233;49.500;7.764;2023-07-31T07:15:04;98206.88;;;22.38;61.33
7433;BME280;32233;49.500;7.764;2023-07-31T07:17:31;98211.84;;;22.26;59.35
7433;BME280;32233;49.500;7.764;2023-07-31T07:19:58;98213.97;;;20.91;64.13
7433;BME280;32233;49.500;7.764;2023-07-31T07:22:25;98210.31;;;19.85;69.40
7433;BME280;32233;49.500;7.764;2023-07-31T07:24:54;98208.56;;;19.38;74.22
7433;BME280;32233;49.500;7.764;2023-07-31T07:27:20;98215.28;;;19.45;73.77
7433;BME280;32233;49.500;7.764;2023-07-31T07:29:50;98213.13;;;19.32;75.10
7433;BME280;32233;49.500;7.764;2023-07-31T07:32:17;98202.84;;;19.14;76.53
7433;BME280;32233;49.500;7.764;2023-07-31T07:34:44;98219.84;;;19.40;75.03
7433;BME280;32233;49.500;7.764;2023-07-31T07:37:11;98203.34;;;19.00;78.12
7433;BME280;32233;49.500;7.764;2023-07-31T07:39:38;98209.47;;;18.91;77.57
7433;BME280;32233;49.500;7.764;2023-07-31T07:42:05;98205.56;;;18.66;80.30
7433;BME280;32233;49.500;7.764;2023-07-31T07:44:32;98207.97;;;18.68;80.59
7433;BME280;32233;49.500;7.764;2023-07-31T07:46:59;98206.50;;;18.82;78.98
7433;BME280;32233;49.500;7.764;2023-07-31T07:49:25;98197.53;;;19.24;76.10
7433;BME280;32233;49.500;7.764;2023-07-31T07:51:52;98197.03;;;19.32;75.59
7433;BME280;32233;49.500;7.764;2023-07-31T07:54:19;98193.94;;;18.93;78.58
7433;BME280;32233;49.500;7.764;2023-07-31T07:56:47;98195.59;;;18.99;78.17
7433;BME280;32233;49.500;7.764;2023-07-31T07:59:14;98188.72;;;19.39;74.62
7433;BME280;32233;49.500;7.764;2023-07-31T08:01:41;98194.72;;;19.61;76.04
7433;BME280;32233;49.500;7.764;2023-07-31T08:04:07;98188.47;;;19.45;74.15
7433;BME280;32233;49.500;7.764;2023-07-31T08:06:34;98186.03;;;19.23;76.01
7433;BME280;32233;49.500;7.764;2023-07-31T08:09:00;98185.00;;;19.40;74.34
7433;BME280;32233;49.500;7.764;2023-07-31T08:11:32;98166.28;;;19.75;72.02
7433;BME280;32233;49.500;7.764;2023-07-31T08:13:59;98158.75;;;19.57;73.18
7433;BME280;32233;49.500;7.764;2023-07-31T08:16:26;98169.97;;;19.28;73.97
7433;BME280;32233;49.500;7.764;2023-07-31T08:18:53;98156.84;;;19.42;72.75
7433;BME280;32233;49.500;7.764;2023-07-31T08:21:21;98161.34;;;19.11;73.88
7433;BME280;32233;49.500;7.764;2023-07-31T08:23:48;98161.00;;;18.97;73.97
7433;BME280;32233;49.500;7.764;2023-07-31T08:26:18;98163.72;;;19.02;74.99
7433;BME280;32233;49.500;7.764;2023-07-31T08:28:46;98160.59;;;19.31;74.82
7433;BME280;32233;49.500;7.764;2023-07-31T08:31:13;98163.63;;;20.21;70.53
7433;BME280;32233;49.500;7.764;2023-07-31T08:33:39;98163.22;;;21.44;65.86
7433;BME280;32233;49.500;7.764;2023-07-31T08:36:14;98155.69;;;21.80;65.62
7433;BME280;32233;49.500;7.764;2023-07-31T08:38:45;98152.50;;;20.74;67.05
7433;BME280;32233;49.500;7.764;2023-07-31T08:41:11;98152.81;;;20.37;68.20
7433;BME280;32233;49.500;7.764;2023-07-31T08:43:40;98143.41;;;20.44;69.89
7433;BME280;32233;49.500;7.764;2023-07-31T08:46:07;98143.78;;;20.02;70.29
7433;BME280;32233;49.500;7.764;2023-07-31T08:48:47;98131.97;;;19.93;69.63
7433;BME280;32233;49.500;7.764;2023-07-31T08:51:19;98137.88;;;20.05;70.10
7433;BME280;32233;49.500;7.764;2023-07-31T08:53:46;98131.63;;;20.35;67.80
7433;BME280;32233;49.500;7.764;2023-07-31T08:56:13;98137.53;;;20.52;67.94
7433;BME280;32233;49.500;7.764;2023-07-31T08:58:41;98124.53;;;20.80;68.43
7433;BME280;32233;49.500;7.764;2023-07-31T09:01:08;98130.41;;;20.87;65.87
7433;BME280;32233;49.500;7.764;2023-07-31T09:03:36;98129.41;;;20.78;64.71
7433;BME280;32233;49.500;7.764;2023-07-31T09:06:04;98137.72;;;20.76;66.42
7433;BME280;32233;49.500;7.764;2023-07-31T09:08:32;98136.19;;;21.15;65.98
7433;BME280;32233;49.500;7.764;2023-07-31T09:11:00;98134.78;;;21.33;65.82
7433;BME280;32233;49.500;7.764;2023-07-31T09:13:33;98142.16;;;21.01;66.53
7433;BME280;32233;49.500;7.764;2023-07-31T09:15:59;98154.78;;;21.01;67.80
7433;BME280;32233;49.500;7.764;2023-07-31T09:18:27;98143.63;;;21.33;63.53
7433;BME280;32233;49.500;7.764;2023-07-31T09:21:01;98139.41;;;21.61;62.51
7433;BME280;32233;49.500;7.764;2023-07-31T09:23:41;98124.47;;;21.79;64.27
7433;BME280;32233;49.500;7.764;2023-07-31T09:26:08;98121.53;;;21.75;63.76
7433;BME280;32233;49.500;7.764;2023-07-31T09:28:35;98135.84;;;21.71;63.23
7433;BME280;32233;49.500;7.764;2023-07-31T09:31:02;98127.56;;;21.18;64.56
7433;BME280;32233;49.500;7.764;2023-07-31T09:33:28;98120.00;;;21.25;63.61
7433;BME280;32233;49.500;7.764;2023-07-31T09:35:55;98133.16;;;21.26;64.55
7433;BME280;32233;49.500;7.764;2023-07-31T09:38:22;98124.31;;;21.21;64.01
7433;BME280;32233;49.500;7.764;2023-07-31T09:40:49;98118.66;;;21.67;64.00
7433;BME280;32233;49.500;7.764;2023-07-31T09:43:20;98123.81;;;21.19;62.44
7433;BME280;32233;49.500;7.764;2023-07-31T09:45:47;98121.63;;;21.21;64.67
7433;BME280;32233;49.500;7.764;2023-07-31T09:48:18;98119.59;;;21.52;63.80
7433;BME280;32233;49.500;7.764;2023-07-31T09:50:46;98102.66;;;21.51;63.11
7433;BME280;32233;49.500;7.764;2023-07-31T09:53:13;98112.53;;;21.17;61.57
7433;BME280;32233;49.500;7.764;2023-07-31T09:55:41;98104.50;;;20.52;65.24
7433;BME280;32233;49.500;7.764;2023-07-31T09:58:10;98102.75;;;20.82;66.65
7433;BME280;32233;49.500;7.764;2023-07-31T10:00:37;98095.94;;;21.49;66.51
7433;BME280;32233;49.500;7.764;2023-07-31T10:03:06;98092.09;;;21.60;63.69
7433;BME280;32233;49.500;7.764;2023-07-31T10:05:35;98100.00;;;21.75;64.99
7433;BME280;32233;49.500;7.764;2023-07-31T10:08:03;98090.44;;;21.64;64.36
7433;BME280;32233;49.500;7.764;2023-07-31T10:10:31;98107.97;;;21.12;65.60
7433;BME280;32233;49.500;7.764;2023-07-31T10:12:59;98100.78;;;20.38;68.14
7433;BME280;32233;49.500;7.764;2023-07-31T10:15:26;98101.56;;;20.38;68.58
7433;BME280;32233;49.500;7.764;2023-07-31T10:17:53;98103.50;;;20.17;69.19
7433;BME280;32233;49.500;7.764;2023-07-31T10:20:21;98105.09;;;20.18;69.73
7433;BME280;32233;49.500;7.764;2023-07-31T10:22:48;98098.34;;;20.41;70.01
7433;BME280;32233;49.500;7.764;2023-07-31T10:25:16;98086.59;;;20.92;68.14
7433;BME280;32233;49.500;7.764;2023-07-31T10:27:43;98071.25;;;21.02;66.85
7433;BME280;32233;49.500;7.764;2023-07-31T10:30:12;98071.63;;;21.64;66.02
7433;BME280;32233;49.500;7.764;2023-07-31T10:32:45;98066.56;;;21.58;65.76
7433;BME280;32233;49.500;7.764;2023-07-31T10:35:12;98076.44;;;20.84;68.34
7433;BME280;32233;49.500;7.764;2023-07-31T10:37:42;98076.72;;;20.77;69.70
7433;BME280;32233;49.500;7.764;2023-07-31T10:40:19;98077.78;;;20.86;66.95
7433;BME280;32233;49.500;7.764;2023-07-31T10:42:53;98073.88;;;21.08;68.15
7433;BME280;32233;49.500;7.764;2023-07-31T10:45:25;98077.13;;;21.05;66.82
7433;BME280;32233;49.500;7.764;2023-07-31T10:48:06;98078.97;;;21.09;67.82
7433;BME280;32233;49.500;7.764;2023-07-31T10:50:47;98069.59;;;21.07;66.91
7433;BME280;32233;49.500;7.764;2023-07-31T10:53:25;98057.78;;;21.08;66.83
7433;BME280;32233;49.500;7.764;2023-07-31T10:55:51;98054.75;;;21.14;66.84
7433;BME280;32233;49.500;7.764;2023-07-31T10:58:20;98061.41;;;21.22;67.85
7433;BME280;32233;49.500;7.764;2023-07-31T11:00:47;98052.25;;;21.28;66.95
7433;BME280;32233;49.500;7.764;2023-07-31T11:03:17;98044.41;;;21.37;68.14
7433;BME280;32233;49.500;7.764;2023-07-31T11:05:59;98060.03;;;21.30;65.63
7433;BME280;32233;49.500;7.764;2023-07-31T11:08:48;98058.47;;;21.23;65.28
7433;BME280;32233;49.500;7.764;2023-07-31T11:11:17;98057.44;;;21.19;65.55
7433;BME280;32233;49.500;7.764;2023-07-31T11:13:51;98044.75;;;21.25;65.90
7433;BME280;32233;49.500;7.764;2023-07-31T11:16:25;98050.00;;;21.74;64.88
7433;BME280;32233;49.500;7.764;2023-07-31T11:18:52;98043.88;;;21.69;63.34
7433;BME280;32233;49.500;7.764;2023-07-31T11:21:22;98040.31;;;22.02;61.23
7433;BME280;32233;49.500;7.764;2023-07-31T11:23:50;98047.75;;;22.11;61.83
7433;BME280;32233;49.500;7.764;2023-07-31T11:26:18;98040.94;;;21.94;63.38
7433;BME280;32233;49.500;7.764;2023-07-31T11:28:49;98039.00;;;21.42;65.50
7433;BME280;32233;49.500;7.764;2023-07-31T11:31:17;98057.56;;;21.43;64.20
7433;BME280;32233;49.500;7.764;2023-07-31T11:33:45;98048.28;;;21.60;62.17
7433;BME280;32233;49.500;7.764;2023-07-31T11:36:16;98048.03;;;21.51;62.35
7433;BME280;32233;49.500;7.764;2023-07-31T11:38:42;98050.34;;;21.34;61.83
7433;BME280;32233;49.500;7.764;2023-07-31T11:41:09;98053.69;;;21.15;61.02
7433;BME280;32233;49.500;7.764;2023-07-31T11:43:35;98037.63;;;22.02;59.94
7433;BME280;32233;49.500;7.764;2023-07-31T11:46:05;98040.69;;;22.20;59.30
7433;BME280;32233;49.500;7.764;2023-07-31T11:48:35;98045.69;;;22.02;59.29
7433;BME280;32233;49.500;7.764;2023-07-31T11:51:04;98041.22;;;22.22;59.32
7433;BME280;32233;49.500;7.764;2023-07-31T11:56:05;98034.56;;;23.52;56.43
7433;BME280;32233;49.500;7.764;2023-07-31T11:58:34;98032.72;;;23.14;56.92
7433;BME280;32233;49.500;7.764;2023-07-31T12:01:01;98031.41;;;22.74;59.10
7433;BME280;32233;49.500;7.764;2023-07-31T12:03:28;98040.66;;;22.44;58.52
7433;BME280;32233;49.500;7.764;2023-07-31T12:05:55;98039.81;;;22.00;59.83
7433;BME280;32233;49.500;7.764;2023-07-31T12:08:23;98038.41;;;22.03;60.60
7433;BME280;32233;49.500;7.764;2023-07-31T12:10:51;98036.25;;;22.05;60.69
7433;BME280;32233;49.500;7.764;2023-07-31T12:13:25;98035.00;;;21.68;62.38
7433;BME280;32233;49.500;7.764;2023-07-31T12:15:56;98032.94;;;21.60;62.79
7433;BME280;32233;49.500;7.764;2023-07-31T12:18:25;98025.31;;;21.38;64.61
7433;BME280;32233;49.500;7.764;2023-07-31T12:20:59;98029.03;;;21.42;65.56
7433;BME280;32233;49.500;7.764;2023-07-31T12:23:34;98021.63;;;21.58;64.02
7433;BME280;32233;49.500;7.764;2023-07-31T12:28:27;98024.75;;;21.70;61.96
7433;BME280;32233;49.500;7.764;2023-07-31T12:30:59;98014.06;;;21.65;64.19
7433;BME280;32233;49.500;7.764;2023-07-31T12:33:37;98012.28;;;21.56;62.55
7433;BME280;32233;49.500;7.764;2023-07-31T12:36:07;98006.41;;;21.48;63.21
7433;BME280;32233;49.500;7.764;2023-07-31T12:38:34;97992.03;;;22.11;63.12
7433;BME280;32233;49.500;7.764;2023-07-31T12:41:01;97985.50;;;23.17;57.30
7433;BME280;32233;49.500;7.764;2023-07-31T12:43:28;97988.72;;;23.52;56.67
7433;BME280;32233;49.500;7.764;2023-07-31T12:45:55;97998.03;;;22.51;60.36
7433;BME280;32233;49.500;7.764;2023-07-31T12:48:25;97993.69;;;22.07;61.78
7433;BME280;32233;49.500;7.764;2023-07-31T12:50:52;97990.09;;;21.69;63.04
7433;BME280;32233;49.500;7.764;2023-07-31T12:53:18;97983.50;;;21.51;63.24
7433;BME280;32233;49.500;7.764;2023-07-31T12:55:45;97992.06;;;21.24;64.20
7433;BME280;32233;49.500;7.764;2023-07-31T12:58:12;97995.41;;;21.11;64.70
7433;BME280;32233;49.500;7.764;2023-07-31T13:00:39;97992.28;;;20.93;67.20
7433;BME280;32233;49.500;7.764;2023-07-31T13:03:05;97994.53;;;20.81;66.61
7433;BME280;32233;49.500;7.764;2023-07-31T13:05:32;97993.88;;;20.55;68.67
7433;BME280;32233;49.500;7.764;2023-07-31T13:07:59;97995.19;;;20.63;67.62
7433;BME280;32233;49.500;7.764;2023-07-31T13:10:27;97998.13;;;20.61;68.73
7433;BME280;32233;49.500;7.764;2023-07-31T13:12:55;97991.47;;;20.53;67.87
7433;BME280;32233;49.500;7.764;2023-07-31T13:15:22;97994.38;;;20.57;69.73
7433;BME280;32233;49.500;7.764;2023-07-31T13:17:49;97993.84;;;20.60;69.27
7433;BME280;32233;49.500;7.764;2023-07-31T13:20:16;97994.97;;;20.49;69.75
7433;BME280;32233;49.500;7.764;2023-07-31T13:22:43;97988.47;;;20.60;69.18
7433;BME280;32233;49.500;7.764;2023-07-31T13:25:12;97995.19;;;20.63;70.74